sensor_id;sensor_type;location;lat;lon;timestamp;pressure;altitude;pressure_sealevel;temperature;humidity
45253;BME280;63171;50.520;30.486;2023-06-22T00:00:09;100229.69;;;25.16;56.65
45253;BME280;63171;50.520;30.486;2023-06-22T00:01:44;100230.56;;;25.08;56.12
45253;BME280;63171;50.520;30.486;2023-06-22T00:02:36;100236.13;;;25.07;56.42
45253;BME280;63171;50.520;30.486;2023-06-22T00:03:26;100241.47;;;25.07;56.54
45253;BME280;63171;50.520;30.486;2023-06-22T00:04:17;100236.31;;;25.05;56.34
45253;BME280;63171;50.520;30.486;2023-06-22T00:05:07;100240.00;;;25.04;56.45
45253;BME280;63171;50.520;30.486;2023-06-22T00:05:58;100238.16;;;25.04;56.04
45253;BME280;63171;50.520;30.486;2023-06-22T00:06:48;100231.31;;;25.02;56.22
45253;BME280;63171;50.520;30.486;2023-06-22T00:07:39;100243.88;;;25.01;56.17
45253;BME280;63171;50.520;30.486;2023-06-22T00:08:29;100235.97;;;25.00;56.00
45253;BME280;63171;50.520;30.486;2023-06-22T00:09:20;100238.84;;;24.98;55.80
45253;BME280;63171;50.520;30.486;2023-06-22T00:10:10;100240.34;;;25.01;56.05
45253;BME280;63171;50.520;30.486;2023-06-22T00:11:01;100242.22;;;25.00;56.03
45253;BME280;63171;50.520;30.486;2023-06-22T00:11:52;100236.16;;;24.98;55.77
45253;BME280;63171;50.520;30.486;2023-06-22T00:12:43;100239.00;;;24.97;55.81
45253;BME280;63171;50.520;30.486;2023-06-22T00:13:32;100236.50;;;24.95;55.80
45253;BME280;63171;50.520;30.486;2023-06-22T00:14:23;100232.34;;;24.93;55.56
45253;BME280;63171;50.520;30.486;2023-06-22T00:15:13;100242.22;;;24.92;55.43
45253;BME280;63171;50.520;30.486;2023-06-22T00:16:04;100239.56;;;24.92;55.47
45253;BME280;63171;50.520;30.486;2023-06-22T00:16:54;100238.06;;;24.90;55.31
45253;BME280;63171;50.520;30.486;2023-06-22T00:17:46;100242.59;;;24.89;55.38
45253;BME280;63171;50.520;30.486;2023-06-22T00:18:36;100239.09;;;24.89;55.21
45253;BME280;63171;50.520;30.486;2023-06-22T00:19:26;100242.41;;;24.91;55.00
45253;BME280;63171;50.520;30.486;2023-06-22T00:20:16;100238.25;;;24.88;54.94
45253;BME280;63171;50.520;30.486;2023-06-22T00:21:08;100241.56;;;24.90;54.99
45253;BME280;63171;50.520;30.486;2023-06-22T00:21:57;100240.94;;;24.88;54.94
45253;BME280;63171;50.520;30.486;2023-06-22T00:22:49;100233.91;;;24.87;54.92
45253;BME280;63171;50.520;30.486;2023-06-22T00:23:38;100244.63;;;24.87;54.81
45253;BME280;63171;50.520;30.486;2023-06-22T00:24:30;100240.09;;;24.88;54.83
45253;BME280;63171;50.520;30.486;2023-06-22T00:25:20;100241.94;;;24.87;54.76
45253;BME280;63171;50.520;30.486;2023-06-22T00:26:10;100241.09;;;24.87;54.50
45253;BME280;63171;50.520;30.486;2023-06-22T00:27:02;100241.09;;;24.87;54.46
45253;BME280;63171;50.520;30.486;2023-06-22T00:27:54;100241.28;;;24.85;54.50
45253;BME280;63171;50.520;30.486;2023-06-22T00:28:45;100239.44;;;24.86;54.58
45253;BME280;63171;50.520;30.486;2023-06-22T00:29:34;100245.81;;;24.85;54.41
45253;BME280;63171;50.520;30.486;2023-06-22T00:30:25;100245.81;;;24.85;54.31
45253;BME280;63171;50.520;30.486;2023-06-22T00:31:14;100244.97;;;24.84;54.32
45253;BME280;63171;50.520;30.486;2023-06-22T00:32:05;100245.97;;;24.83;54.09
45253;BME280;63171;50.520;30.486;2023-06-22T00:32:55;100245.88;;;24.76;54.38
45253;BME280;63171;50.520;30.486;2023-06-22T00:33:45;100252.94;;;24.69;54.35
45253;BME280;63171;50.520;30.486;2023-06-22T00:34:35;100247.09;;;24.66;54.11
45253;BME280;63171;50.520;30.486;2023-06-22T00:35:26;100250.25;;;24.69;54.31
45253;BME280;63171;50.520;30.486;2023-06-22T00:36:18;100237.53;;;24.71;54.22
45253;BME280;63171;50.520;30.486;2023-06-22T00:37:09;100244.38;;;24.74;54.31
45253;BME280;63171;50.520;30.486;2023-06-22T00:38:01;100242.53;;;24.74;54.31
45253;BME280;63171;50.520;30.486;2023-06-22T00:38:51;100243.19;;;24.76;54.00
45253;BME280;63171;50.520;30.486;2023-06-22T00:39:42;100237.81;;;24.76;54.13
45253;BME280;63171;50.520;30.486;2023-06-22T00:40:32;100242.16;;;24.77;53.91
45253;BME280;63171;50.520;30.486;2023-06-22T00:41:22;100242.16;;;24.77;53.88
45253;BME280;63171;50.520;30.486;2023-06-22T00:42:14;100247.34;;;24.79;53.77
45253;BME280;63171;50.520;30.486;2023-06-22T00:43:05;100248.19;;;24.80;53.78
45253;BME280;63171;50.520;30.486;2023-06-22T00:43:55;100247.34;;;24.79;53.90
45253;BME280;63171;50.520;30.486;2023-06-22T00:44:45;100252.88;;;24.77;53.83
45253;BME280;63171;50.520;30.486;2023-06-22T00:45:36;100251.03;;;24.78;53.92
45253;BME280;63171;50.520;30.486;2023-06-22T00:46:26;100255.38;;;24.79;53.71
45253;BME280;63171;50.520;30.486;2023-06-22T00:47:18;100256.03;;;24.81;53.83
45253;BME280;63171;50.520;30.486;2023-06-22T00:48:08;100248.34;;;24.78;53.70
45253;BME280;63171;50.520;30.486;2023-06-22T00:48:59;100252.88;;;24.77;53.58
45253;BME280;63171;50.520;30.486;2023-06-22T00:49:52;100258.44;;;24.76;53.79
45253;BME280;63171;50.520;30.486;2023-06-22T00:50:42;100256.56;;;24.76;53.55
45253;BME280;63171;50.520;30.486;2023-06-22T00:51:32;100261.09;;;24.76;53.94
45253;BME280;63171;50.520;30.486;2023-06-22T00:52:24;100253.06;;;24.76;53.68
45253;BME280;63171;50.520;30.486;2023-06-22T00:53:19;100256.75;;;24.75;53.37
45253;BME280;63171;50.520;30.486;2023-06-22T00:54:10;100254.72;;;24.77;53.77
45253;BME280;63171;50.520;30.486;2023-06-22T00:55:02;100255.75;;;24.76;53.73
45253;BME280;63171;50.520;30.486;2023-06-22T00:55:53;100250.38;;;24.76;53.70
45253;BME280;63171;50.520;30.486;2023-06-22T00:56:42;100253.06;;;24.76;53.62
45253;BME280;63171;50.520;30.486;2023-06-22T00:57:34;100253.06;;;24.76;53.99
45253;BME280;63171;50.520;30.486;2023-06-22T00:58:26;100254.91;;;24.75;53.83
45253;BME280;63171;50.520;30.486;2023-06-22T00:59:17;100261.28;;;24.74;53.48
45253;BME280;63171;50.520;30.486;2023-06-22T01:00:08;100260.44;;;24.74;53.74
45253;BME280;63171;50.520;30.486;2023-06-22T01:01:06;100260.81;;;24.71;53.88
45253;BME280;63171;50.520;30.486;2023-06-22T01:01:56;100258.13;;;24.71;53.95
45253;BME280;63171;50.520;30.486;2023-06-22T01:02:48;100254.59;;;24.70;53.83
45253;BME280;63171;50.520;30.486;2023-06-22T01:03:41;100262.63;;;24.70;53.84
45253;BME280;63171;50.520;30.486;2023-06-22T01:04:34;100257.28;;;24.70;54.03
45253;BME280;63171;50.520;30.486;2023-06-22T01:05:25;100261.16;;;24.68;54.14
45253;BME280;63171;50.520;30.486;2023-06-22T01:06:24;100264.66;;;24.68;53.97
45253;BME280;63171;50.520;30.486;2023-06-22T01:07:23;100267.34;;;24.68;54.05
45253;BME280;63171;50.520;30.486;2023-06-22T01:08:28;100264.84;;;24.67;53.81
45253;BME280;63171;50.520;30.486;2023-06-22T01:09:27;100265.84;;;24.66;54.09
45253;BME280;63171;50.520;30.486;2023-06-22T01:10:26;100264.19;;;24.65;54.35
45253;BME280;63171;50.520;30.486;2023-06-22T01:11:21;100261.50;;;24.65;54.33
45253;BME280;63171;50.520;30.486;2023-06-22T01:12:12;100265.84;;;24.66;54.60
45253;BME280;63171;50.520;30.486;2023-06-22T01:13:13;100263.16;;;24.66;54.21
45253;BME280;63171;50.520;30.486;2023-06-22T01:14:09;100264.19;;;24.65;54.52
45253;BME280;63171;50.520;30.486;2023-06-22T01:15:06;100263.16;;;24.66;54.43
45253;BME280;63171;50.520;30.486;2023-06-22T01:16:02;100260.50;;;24.66;54.57
45253;BME280;63171;50.520;30.486;2023-06-22T01:16:55;100260.50;;;24.66;54.62
45253;BME280;63171;50.520;30.486;2023-06-22T01:17:48;100260.50;;;24.66;54.77
45253;BME280;63171;50.520;30.486;2023-06-22T01:18:43;100264.19;;;24.65;54.65
45253;BME280;63171;50.520;30.486;2023-06-22T01:19:38;100264.00;;;24.66;54.85
45253;BME280;63171;50.520;30.486;2023-06-22T01:20:32;100258.66;;;24.66;54.83
45253;BME280;63171;50.520;30.486;2023-06-22T01:21:25;100259.66;;;24.65;54.86
45253;BME280;63171;50.520;30.486;2023-06-22T01:22:20;100261.31;;;24.66;54.84
45253;BME280;63171;50.520;30.486;2023-06-22T01:23:18;100263.16;;;24.66;55.13
45253;BME280;63171;50.520;30.486;2023-06-22T01:24:16;100261.50;;;24.65;55.13
45253;BME280;63171;50.520;30.486;2023-06-22T01:25:11;100262.50;;;24.64;54.96
45253;BME280;63171;50.520;30.486;2023-06-22T01:26:08;100265.19;;;24.64;54.84
45253;BME280;63171;50.520;30.486;2023-06-22T01:27:10;100269.72;;;24.63;55.04
45253;BME280;63171;50.520;30.486;2023-06-22T01:28:17;100261.88;;;24.62;55.06
45253;BME280;63171;50.520;30.486;2023-06-22T01:29:11;100275.25;;;24.62;55.13
45253;BME280;63171;50.520;30.486;2023-06-22T01:30:05;100268.06;;;24.62;54.86
45253;BME280;63171;50.520;30.486;2023-06-22T01:30:59;100268.06;;;24.62;55.23
45253;BME280;63171;50.520;30.486;2023-06-22T01:31:56;100273.41;;;24.62;55.02
45253;BME280;63171;50.520;30.486;2023-06-22T01:32:47;100271.56;;;24.63;55.25
45253;BME280;63171;50.520;30.486;2023-06-22T01:33:41;100276.09;;;24.62;55.45
45253;BME280;63171;50.520;30.486;2023-06-22T01:34:31;100270.72;;;24.62;55.26
45253;BME280;63171;50.520;30.486;2023-06-22T01:35:24;100273.41;;;24.62;55.45
45253;BME280;63171;50.520;30.486;2023-06-22T01:36:16;100271.56;;;24.63;55.51
45253;BME280;63171;50.520;30.486;2023-06-22T01:37:09;100276.91;;;24.63;55.25
45253;BME280;63171;50.520;30.486;2023-06-22T01:37:59;100269.56;;;24.57;55.45
45253;BME280;63171;50.520;30.486;2023-06-22T01:38:50;100276.63;;;24.58;55.20
45253;BME280;63171;50.520;30.486;2023-06-22T01:39:42;100271.28;;;24.58;55.46
45253;BME280;63171;50.520;30.486;2023-06-22T01:40:33;100267.41;;;24.60;55.79
45253;BME280;63171;50.520;30.486;2023-06-22T01:41:25;100271.56;;;24.63;55.31
45253;BME280;63171;50.520;30.486;2023-06-22T01:42:16;100271.56;;;24.63;55.79
45253;BME280;63171;50.520;30.486;2023-06-22T01:43:06;100272.41;;;24.63;55.56
45253;BME280;63171;50.520;30.486;2023-06-22T01:43:59;100272.56;;;24.62;55.57
45253;BME280;63171;50.520;30.486;2023-06-22T01:44:52;100269.72;;;24.63;55.37
45253;BME280;63171;50.520;30.486;2023-06-22T01:45:43;100266.22;;;24.63;55.33
45253;BME280;63171;50.520;30.486;2023-06-22T01:46:35;100273.22;;;24.64;55.14
45253;BME280;63171;50.520;30.486;2023-06-22T01:47:26;100265.19;;;24.64;55.29
45253;BME280;63171;50.520;30.486;2023-06-22T01:48:17;100266.03;;;24.64;55.16
45253;BME280;63171;50.520;30.486;2023-06-22T01:49:09;100262.50;;;24.64;55.40
45253;BME280;63171;50.520;30.486;2023-06-22T01:49:59;100262.34;;;24.65;55.28
45253;BME280;63171;50.520;30.486;2023-06-22T01:50:50;100261.50;;;24.65;55.29
45253;BME280;63171;50.520;30.486;2023-06-22T01:51:40;100259.66;;;24.65;54.97
45253;BME280;63171;50.520;30.486;2023-06-22T01:52:31;100266.84;;;24.65;55.22
45253;BME280;63171;50.520;30.486;2023-06-22T01:53:24;100265.00;;;24.65;54.98
45253;BME280;63171;50.520;30.486;2023-06-22T01:54:15;100269.53;;;24.65;54.76
45253;BME280;63171;50.520;30.486;2023-06-22T01:55:06;100266.22;;;24.63;54.80
45253;BME280;63171;50.520;30.486;2023-06-22T01:55:57;100265.19;;;24.64;54.86
45253;BME280;63171;50.520;30.486;2023-06-22T01:56:48;100261.88;;;24.62;54.87
45253;BME280;63171;50.520;30.486;2023-06-22T01:57:38;100260.19;;;24.61;55.00
45253;BME280;63171;50.520;30.486;2023-06-22T01:58:30;100265.38;;;24.62;55.11
45253;BME280;63171;50.520;30.486;2023-06-22T01:59:25;100265.19;;;24.64;55.16
45253;BME280;63171;50.520;30.486;2023-06-22T02:00:21;100268.06;;;24.62;55.14
45253;BME280;63171;50.520;30.486;2023-06-22T02:01:16;100270.91;;;24.61;55.17
45253;BME280;63171;50.520;30.486;2023-06-22T02:02:12;100267.59;;;24.59;55.28
45253;BME280;63171;50.520;30.486;2023-06-22T02:03:10;100268.22;;;24.61;55.22
45253;BME280;63171;50.520;30.486;2023-06-22T02:04:06;100262.88;;;24.61;55.66
45253;BME280;63171;50.520;30.486;2023-06-22T02:04:59;100273.22;;;24.64;55.65
45253;BME280;63171;50.520;30.486;2023-06-22T02:05:56;100267.69;;;24.65;55.75
45253;BME280;63171;50.520;30.486;2023-06-22T02:06:51;100264.84;;;24.67;55.93
45253;BME280;63171;50.520;30.486;2023-06-22T02:07:47;100265.47;;;24.69;56.13
45253;BME280;63171;50.520;30.486;2023-06-22T02:08:41;100266.16;;;24.71;56.09
45253;BME280;63171;50.520;30.486;2023-06-22T02:09:35;100260.63;;;24.72;56.10
45253;BME280;63171;50.520;30.486;2023-06-22T02:10:27;100265.81;;;24.74;56.24
45253;BME280;63171;50.520;30.486;2023-06-22T02:11:21;100262.94;;;24.75;56.35
45253;BME280;63171;50.520;30.486;2023-06-22T02:12:17;100260.09;;;24.77;56.56
45253;BME280;63171;50.520;30.486;2023-06-22T02:13:09;100266.09;;;24.79;56.39
45253;BME280;63171;50.520;30.486;2023-06-22T02:13:59;100261.41;;;24.81;56.50
45253;BME280;63171;50.520;30.486;2023-06-22T02:14:50;100253.16;;;24.83;56.54
45253;BME280;63171;50.520;30.486;2023-06-22T02:15:43;100263.75;;;24.84;56.52
45253;BME280;63171;50.520;30.486;2023-06-22T02:16:36;100253.66;;;24.86;56.35
45253;BME280;63171;50.520;30.486;2023-06-22T02:17:27;100250.81;;;24.88;56.33
45253;BME280;63171;50.520;30.486;2023-06-22T02:18:17;100260.16;;;24.92;55.86
45253;BME280;63171;50.520;30.486;2023-06-22T02:19:07;100259.13;;;24.93;56.02
45253;BME280;63171;50.520;30.486;2023-06-22T02:19:58;100259.59;;;24.96;55.72
45253;BME280;63171;50.520;30.486;2023-06-22T02:20:48;100259.44;;;24.98;55.65
45253;BME280;63171;50.520;30.486;2023-06-22T02:21:38;100263.66;;;25.00;55.60
45253;BME280;63171;50.520;30.486;2023-06-22T02:22:28;100258.09;;;25.02;55.42
45253;BME280;63171;50.520;30.486;2023-06-22T02:23:19;100266.63;;;25.05;55.49
45253;BME280;63171;50.520;30.486;2023-06-22T02:24:09;100255.53;;;25.09;55.59
45253;BME280;63171;50.520;30.486;2023-06-22T02:25:00;100254.34;;;25.11;55.57
45253;BME280;63171;50.520;30.486;2023-06-22T02:25:50;100257.69;;;25.13;55.87
45253;BME280;63171;50.520;30.486;2023-06-22T02:26:42;100260.19;;;25.15;55.79
45253;BME280;63171;50.520;30.486;2023-06-22T02:27:32;100263.50;;;25.17;55.83
45253;BME280;63171;50.520;30.486;2023-06-22T02:28:22;100262.31;;;25.19;55.72
45253;BME280;63171;50.520;30.486;2023-06-22T02:29:12;100256.94;;;25.19;55.76
45253;BME280;63171;50.520;30.486;2023-06-22T02:30:07;100257.59;;;25.21;55.78
45253;BME280;63171;50.520;30.486;2023-06-22T02:30:58;100256.59;;;25.22;55.93
45253;BME280;63171;50.520;30.486;2023-06-22T02:31:49;100259.94;;;25.24;55.72
45253;BME280;63171;50.520;30.486;2023-06-22T02:32:39;100262.44;;;25.26;55.49
45253;BME280;63171;50.520;30.486;2023-06-22T02:33:31;100258.75;;;25.27;55.61
45253;BME280;63171;50.520;30.486;2023-06-22T02:34:21;100260.41;;;25.28;55.34
45253;BME280;63171;50.520;30.486;2023-06-22T02:35:14;100262.06;;;25.29;55.52
45253;BME280;63171;50.520;30.486;2023-06-22T02:36:04;100255.88;;;25.28;55.51
45253;BME280;63171;50.520;30.486;2023-06-22T02:36:58;100249.69;;;25.28;55.37
45253;BME280;63171;50.520;30.486;2023-06-22T02:37:50;100256.72;;;25.29;55.39
45253;BME280;63171;50.520;30.486;2023-06-22T02:38:41;100254.69;;;25.31;55.26
45253;BME280;63171;50.520;30.486;2023-06-22T02:39:35;100255.50;;;25.31;55.03
45253;BME280;63171;50.520;30.486;2023-06-22T02:40:26;100256.72;;;25.29;55.05
45253;BME280;63171;50.520;30.486;2023-06-22T02:41:16;100255.88;;;25.28;55.26
45253;BME280;63171;50.520;30.486;2023-06-22T02:42:08;100255.69;;;25.30;55.14
45253;BME280;63171;50.520;30.486;2023-06-22T02:43:00;100254.59;;;25.24;55.06
45253;BME280;63171;50.520;30.486;2023-06-22T02:43:51;100256.78;;;25.21;55.20
45253;BME280;63171;50.520;30.486;2023-06-22T02:44:42;100256.59;;;25.22;55.07
45253;BME280;63171;50.520;30.486;2023-06-22T02:45:33;100256.31;;;25.17;55.28
45253;BME280;63171;50.520;30.486;2023-06-22T02:46:24;100253.81;;;25.16;55.18
45253;BME280;63171;50.520;30.486;2023-06-22T02:47:16;100251.78;;;25.18;55.25
45253;BME280;63171;50.520;30.486;2023-06-22T02:48:05;100250.38;;;25.22;55.48
45253;BME280;63171;50.520;30.486;2023-06-22T02:48:57;100253.25;;;25.20;55.47
45253;BME280;63171;50.520;30.486;2023-06-22T02:49:46;100250.81;;;25.11;55.46
45253;BME280;63171;50.520;30.486;2023-06-22T02:50:37;100251.69;;;25.11;55.32
45253;BME280;63171;50.520;30.486;2023-06-22T02:51:28;100256.03;;;25.12;55.55
45253;BME280;63171;50.520;30.486;2023-06-22T02:52:19;100255.34;;;25.10;55.43
45253;BME280;63171;50.520;30.486;2023-06-22T02:53:09;100254.34;;;25.11;55.71
45253;BME280;63171;50.520;30.486;2023-06-22T02:54:03;100250.28;;;25.15;55.56
45253;BME280;63171;50.520;30.486;2023-06-22T02:54:53;100251.13;;;25.16;55.56
45253;BME280;63171;50.520;30.486;2023-06-22T02:55:44;100259.53;;;25.13;55.50
45253;BME280;63171;50.520;30.486;2023-06-22T02:56:33;100258.69;;;25.12;55.34
45253;BME280;63171;50.520;30.486;2023-06-22T02:57:25;100257.19;;;25.10;55.26
45253;BME280;63171;50.520;30.486;2023-06-22T02:58:15;100255.91;;;25.05;55.51
45253;BME280;63171;50.520;30.486;2023-06-22T02:59:06;100260.22;;;25.07;55.59
45253;BME280;63171;50.520;30.486;2023-06-22T03:00:02;100257.56;;;25.07;55.69
45253;BME280;63171;50.520;30.486;2023-06-22T03:00:56;100264.13;;;25.04;55.56
45253;BME280;63171;50.520;30.486;2023-06-22T03:01:49;100264.13;;;25.04;55.64
45253;BME280;63171;50.520;30.486;2023-06-22T03:02:45;100260.41;;;25.05;55.75
45253;BME280;63171;50.520;30.486;2023-06-22T03:03:35;100259.22;;;25.08;55.65
45253;BME280;63171;50.520;30.486;2023-06-22T03:04:26;100263.09;;;25.05;55.64
45253;BME280;63171;50.520;30.486;2023-06-22T03:05:16;100266.63;;;25.05;55.70
45253;BME280;63171;50.520;30.486;2023-06-22T03:06:07;100270.13;;;25.06;55.74
45253;BME280;63171;50.520;30.486;2023-06-22T03:06:57;100268.94;;;25.09;55.60
45253;BME280;63171;50.520;30.486;2023-06-22T03:07:52;100262.56;;;25.10;55.59
45253;BME280;63171;50.520;30.486;2023-06-22T03:08:41;100274.94;;;25.11;55.53
45253;BME280;63171;50.520;30.486;2023-06-22T03:09:33;100279.13;;;25.13;55.58
45253;BME280;63171;50.520;30.486;2023-06-22T03:10:23;100264.06;;;25.12;55.44
45253;BME280;63171;50.520;30.486;2023-06-22T03:11:14;100273.41;;;25.16;55.48
45253;BME280;63171;50.520;30.486;2023-06-22T03:12:05;100277.75;;;25.17;55.58
45253;BME280;63171;50.520;30.486;2023-06-22T03:13:12;100266.38;;;25.15;55.03
45253;BME280;63171;50.520;30.486;2023-06-22T03:14:01;100270.53;;;25.18;55.06
45253;BME280;63171;50.520;30.486;2023-06-22T03:14:52;100269.34;;;25.20;55.20
45253;BME280;63171;50.520;30.486;2023-06-22T03:15:42;100269.81;;;25.24;55.26
45253;BME280;63171;50.520;30.486;2023-06-22T03:16:32;100262.06;;;25.29;55.50
45253;BME280;63171;50.520;30.486;2023-06-22T03:17:24;100269.09;;;25.30;55.13
45253;BME280;63171;50.520;30.486;2023-06-22T03:18:15;100271.97;;;25.28;55.25
45253;BME280;63171;50.520;30.486;2023-06-22T03:19:05;100271.78;;;25.30;54.96
45253;BME280;63171;50.520;30.486;2023-06-22T03:19:55;100266.06;;;25.33;54.86
45253;BME280;63171;50.520;30.486;2023-06-22T03:20:45;100277.09;;;25.38;54.99
45253;BME280;63171;50.520;30.486;2023-06-22T03:21:37;100260.81;;;25.40;55.06
45253;BME280;63171;50.520;30.486;2023-06-22T03:22:27;100266.63;;;25.43;55.02
45253;BME280;63171;50.520;30.486;2023-06-22T03:23:18;100273.28;;;25.47;54.93
45253;BME280;63171;50.520;30.486;2023-06-22T03:24:07;100270.41;;;25.49;54.98
45253;BME280;63171;50.520;30.486;2023-06-22T03:24:58;100269.06;;;25.53;54.68
45253;BME280;63171;50.520;30.486;2023-06-22T03:25:49;100274.06;;;25.56;54.96
45253;BME280;63171;50.520;30.486;2023-06-22T03:26:40;100273.03;;;25.57;54.84
45253;BME280;63171;50.520;30.486;2023-06-22T03:27:29;100272.47;;;25.61;54.62
45253;BME280;63171;50.520;30.486;2023-06-22T03:28:20;100282.88;;;25.64;54.60
45253;BME280;63171;50.520;30.486;2023-06-22T03:29:10;100271.75;;;25.68;54.43
45253;BME280;63171;50.520;30.486;2023-06-22T03:30:00;100277.81;;;25.70;54.21
45253;BME280;63171;50.520;30.486;2023-06-22T03:30:50;100276.59;;;25.72;53.96
45253;BME280;63171;50.520;30.486;2023-06-22T03:31:41;100274.56;;;25.74;54.08
45253;BME280;63171;50.520;30.486;2023-06-22T03:32:32;100262.81;;;25.75;54.11
45253;BME280;63171;50.520;30.486;2023-06-22T03:33:23;100273.34;;;25.77;53.86
45253;BME280;63171;50.520;30.486;2023-06-22T03:34:13;100267.66;;;25.80;53.89
45253;BME280;63171;50.520;30.486;2023-06-22T03:35:04;100266.91;;;25.86;53.76
45253;BME280;63171;50.520;30.486;2023-06-22T03:35:57;100264.03;;;25.87;53.88
45253;BME280;63171;50.520;30.486;2023-06-22T03:36:48;100267.19;;;25.91;53.87
45253;BME280;63171;50.520;30.486;2023-06-22T03:37:40;100270.34;;;25.95;53.93
45253;BME280;63171;50.520;30.486;2023-06-22T03:38:30;100266.25;;;25.99;53.55
45253;BME280;63171;50.520;30.486;2023-06-22T03:39:21;100269.56;;;26.01;53.58
45253;BME280;63171;50.520;30.486;2023-06-22T03:40:12;100270.06;;;26.04;53.18
45253;BME280;63171;50.520;30.486;2023-06-22T03:41:03;100270.72;;;26.06;53.23
45253;BME280;63171;50.520;30.486;2023-06-22T03:41:53;100269.31;;;26.10;53.11
45253;BME280;63171;50.520;30.486;2023-06-22T03:42:45;100269.56;;;26.15;52.77
45253;BME280;63171;50.520;30.486;2023-06-22T03:43:35;100278.09;;;26.19;52.92
45253;BME280;63171;50.520;30.486;2023-06-22T03:44:27;100273.19;;;26.22;52.65
45253;BME280;63171;50.520;30.486;2023-06-22T03:45:16;100279.00;;;26.26;52.64
45253;BME280;63171;50.520;30.486;2023-06-22T03:46:07;100272.06;;;26.32;52.61
45253;BME280;63171;50.520;30.486;2023-06-22T03:46:57;100273.53;;;26.34;52.17
45253;BME280;63171;50.520;30.486;2023-06-22T03:47:49;100274.84;;;26.38;52.12
45253;BME280;63171;50.520;30.486;2023-06-22T03:48:39;100275.31;;;26.42;51.97
45253;BME280;63171;50.520;30.486;2023-06-22T03:49:30;100277.63;;;26.45;51.84
45253;BME280;63171;50.520;30.486;2023-06-22T03:50:20;100271.88;;;26.48;51.83
45253;BME280;63171;50.520;30.486;2023-06-22T03:51:10;100275.66;;;26.54;51.76
45253;BME280;63171;50.520;30.486;2023-06-22T03:52:00;100278.78;;;26.57;51.65
45253;BME280;63171;50.520;30.486;2023-06-22T03:52:51;100281.13;;;26.60;51.50
45253;BME280;63171;50.520;30.486;2023-06-22T03:53:41;100277.78;;;26.58;51.54
45253;BME280;63171;50.520;30.486;2023-06-22T03:54:32;100277.41;;;26.61;51.53
45253;BME280;63171;50.520;30.486;2023-06-22T03:55:22;100271.00;;;26.62;51.65
45253;BME280;63171;50.520;30.486;2023-06-22T03:56:13;100277.84;;;26.65;51.44
45253;BME280;63171;50.520;30.486;2023-06-22T03:57:03;100275.81;;;26.67;51.28
45253;BME280;63171;50.520;30.486;2023-06-22T03:57:54;100280.44;;;26.73;51.16
45253;BME280;63171;50.520;30.486;2023-06-22T03:58:46;100279.03;;;26.77;51.18
45253;BME280;63171;50.520;30.486;2023-06-22T03:59:37;100277.81;;;26.79;51.10
45253;BME280;63171;50.520;30.486;2023-06-22T04:00:26;100280.94;;;26.83;50.83
45253;BME280;63171;50.520;30.486;2023-06-22T04:01:18;100281.22;;;26.88;50.69
45253;BME280;63171;50.520;30.486;2023-06-22T04:02:07;100289.53;;;26.93;50.54
45253;BME280;63171;50.520;30.486;2023-06-22T04:03:00;100284.59;;;26.97;50.60
45253;BME280;63171;50.520;30.486;2023-06-22T04:03:50;100289.44;;;27.01;50.30
45253;BME280;63171;50.520;30.486;2023-06-22T04:04:41;100285.16;;;27.07;50.53
45253;BME280;63171;50.520;30.486;2023-06-22T04:05:30;100289.31;;;27.09;50.07
45253;BME280;63171;50.520;30.486;2023-06-22T04:06:20;100286.69;;;27.16;49.92
45253;BME280;63171;50.520;30.486;2023-06-22T04:07:12;100286.09;;;27.21;49.86
45253;BME280;63171;50.520;30.486;2023-06-22T04:08:02;100289.06;;;27.26;49.83
45253;BME280;63171;50.520;30.486;2023-06-22T04:08:52;100295.06;;;27.28;49.48
45253;BME280;63171;50.520;30.486;2023-06-22T04:09:41;100281.03;;;27.32;49.51
45253;BME280;63171;50.520;30.486;2023-06-22T04:10:32;100285.47;;;27.40;49.34
45253;BME280;63171;50.520;30.486;2023-06-22T04:11:21;100284.47;;;27.48;49.27
45253;BME280;63171;50.520;30.486;2023-06-22T04:12:12;100281.66;;;27.56;49.08
45253;BME280;63171;50.520;30.486;2023-06-22T04:13:02;100289.59;;;27.64;48.86
45253;BME280;63171;50.520;30.486;2023-06-22T04:13:53;100286.56;;;27.74;48.65
45253;BME280;63171;50.520;30.486;2023-06-22T04:14:43;100283.53;;;27.83;48.42
45253;BME280;63171;50.520;30.486;2023-06-22T04:15:34;100289.19;;;27.95;48.20
45253;BME280;63171;50.520;30.486;2023-06-22T04:16:23;100286.16;;;28.05;47.99
45253;BME280;63171;50.520;30.486;2023-06-22T04:17:14;100293.84;;;28.14;47.84
45253;BME280;63171;50.520;30.486;2023-06-22T04:18:06;100286.44;;;28.23;47.48
45253;BME280;63171;50.520;30.486;2023-06-22T04:18:56;100289.84;;;28.32;47.33
45253;BME280;63171;50.520;30.486;2023-06-22T04:19:46;100285.91;;;28.41;46.97
45253;BME280;63171;50.520;30.486;2023-06-22T04:20:37;100293.00;;;28.48;46.69
45253;BME280;63171;50.520;30.486;2023-06-22T04:21:27;100292.63;;;28.58;46.77
45253;BME280;63171;50.520;30.486;2023-06-22T04:22:18;100295.75;;;28.68;46.50
45253;BME280;63171;50.520;30.486;2023-06-22T04:23:07;100290.41;;;28.75;46.33
45253;BME280;63171;50.520;30.486;2023-06-22T04:23:58;100293.09;;;28.81;45.90
45253;BME280;63171;50.520;30.486;2023-06-22T04:24:48;100296.47;;;28.90;45.61
45253;BME280;63171;50.520;30.486;2023-06-22T04:25:41;100292.13;;;28.96;45.63
45253;BME280;63171;50.520;30.486;2023-06-22T04:26:30;100292.16;;;29.02;45.46
45253;BME280;63171;50.520;30.486;2023-06-22T04:27:26;100294.22;;;29.07;44.91